createdAt,value
2023-03-06T00:02:07.944Z,4.97
2023-03-06T00:04:35.913Z,5.73
2023-03-06T00:07:03.843Z,5.07
2023-03-06T00:09:31.815Z,5.10
2023-03-06T00:11:59.721Z,5.60
2023-03-06T00:14:28.971Z,4.57
2023-03-06T00:16:57.264Z,5.10
2023-03-06T00:19:25.268Z,5.43
2023-03-06T00:21:53.197Z,4.90
2023-03-06T00:24:21.088Z,5.17
2023-03-06T00:26:49.067Z,4.83
2023-03-06T00:29:17.015Z,5.20
2023-03-06T00:31:47.943Z,5.70
2023-03-06T00:34:16.060Z,4.57
2023-03-06T00:36:43.982Z,5.30
2023-03-06T00:39:11.890Z,5.77
2023-03-06T00:41:39.919Z,5.00
2023-03-06T00:44:07.910Z,4.57
2023-03-06T00:46:36.004Z,5.27
2023-03-06T00:49:05.303Z,4.43
2023-03-06T00:51:33.222Z,4.70
2023-03-06T00:54:01.144Z,5.50
2023-03-06T00:56:30.008Z,4.67
2023-03-06T00:58:58.068Z,4.93
2023-03-06T01:01:25.983Z,5.07
2023-03-06T01:03:53.888Z,4.60
2023-03-06T01:06:23.180Z,4.57
2023-03-06T01:08:51.088Z,4.63
2023-03-06T01:11:19.003Z,4.37
2023-03-06T01:13:47.158Z,4.30
2023-03-06T01:16:17.185Z,5.07
2023-03-06T01:18:46.192Z,4.60
2023-03-06T01:21:14.598Z,4.90
2023-03-06T01:23:44.141Z,4.60
2023-03-06T01:26:12.128Z,3.83
2023-03-06T01:28:40.617Z,3.97
2023-03-06T01:31:10.027Z,3.90
2023-03-06T01:33:38.215Z,3.93
2023-03-06T01:36:07.686Z,4.23
2023-03-06T01:38:36.339Z,4.10
2023-03-06T01:41:06.375Z,4.53
2023-03-06T01:43:36.141Z,4.23
2023-03-06T01:46:37.931Z,5.03
2023-03-06T01:49:09.925Z,5.17
2023-03-06T01:51:41.714Z,4.00
2023-03-06T01:54:15.492Z,4.60
2023-03-06T01:56:47.797Z,4.60
2023-03-06T01:59:16.362Z,3.70
2023-03-06T02:01:45.705Z,4.10
2023-03-06T02:04:13.863Z,3.53
2023-03-06T02:06:44.096Z,3.83
2023-03-06T02:09:13.059Z,3.00
2023-03-06T02:11:43.944Z,3.70
2023-03-06T02:14:15.440Z,3.80
2023-03-06T02:16:44.528Z,3.77
2023-03-06T02:19:25.416Z,4.07
2023-03-06T02:21:53.473Z,4.07
2023-03-06T02:24:32.315Z,3.73
2023-03-06T02:27:04.688Z,3.63
2023-03-06T02:29:33.217Z,3.97
2023-03-06T02:32:01.367Z,3.60
2023-03-06T02:34:57.766Z,3.77
2023-03-06T02:37:28.235Z,4.07
2023-03-06T02:40:04.028Z,4.40
2023-03-06T02:42:33.366Z,4.30
2023-03-06T02:45:04.314Z,4.43
2023-03-06T02:47:32.266Z,4.17
2023-03-06T02:50:00.186Z,4.07
2023-03-06T02:52:28.103Z,4.13
2023-03-06T02:54:56.033Z,4.63
2023-03-06T02:57:23.989Z,3.90
2023-03-06T02:59:53.305Z,3.83
2023-03-06T03:02:21.241Z,4.30
2023-03-06T03:04:49.197Z,3.40
2023-03-06T03:07:17.125Z,4.07
2023-03-06T03:09:45.176Z,4.10
2023-03-06T03:12:13.181Z,3.73
2023-03-06T03:14:41.131Z,3.90
2023-03-06T03:17:10.522Z,3.50
2023-03-06T03:19:38.454Z,3.70
2023-03-06T03:22:06.548Z,3.63
2023-03-06T03:24:35.170Z,3.50
2023-03-06T03:27:03.150Z,3.53
2023-03-06T03:29:31.064Z,4.40
2023-03-06T03:31:59.005Z,3.27
2023-03-06T03:34:28.499Z,3.53
2023-03-06T03:36:56.578Z,3.07
2023-03-06T03:39:24.609Z,3.40
2023-03-06T03:41:52.543Z,3.50
2023-03-06T03:44:20.641Z,3.57
2023-03-06T03:46:48.801Z,3.00
2023-03-06T03:49:16.917Z,3.50
2023-03-06T03:51:46.257Z,3.67
2023-03-06T03:54:14.268Z,3.60
2023-03-06T03:56:42.264Z,3.67
2023-03-06T03:59:11.112Z,3.57
2023-03-06T04:01:39.855Z,3.07
2023-03-06T04:04:07.874Z,3.43
2023-03-06T04:06:35.878Z,4.03
2023-03-06T04:09:05.501Z,3.60
2023-03-06T04:11:34.421Z,4.00
2023-03-06T04:14:03.284Z,3.30
2023-03-06T04:16:31.376Z,4.00
2023-03-06T04:18:59.328Z,3.00
2023-03-06T04:21:27.367Z,3.70
2023-03-06T04:23:55.299Z,3.77
2023-03-06T04:26:24.581Z,3.87
2023-03-06T04:28:52.578Z,3.40
2023-03-06T04:31:20.576Z,4.47
2023-03-06T04:33:48.724Z,3.87
2023-03-06T04:36:26.978Z,4.07
2023-03-06T04:38:54.991Z,3.60
2023-03-06T04:41:24.471Z,3.63
2023-03-06T04:43:53.064Z,3.50
2023-03-06T04:46:21.210Z,3.47
2023-03-06T04:48:49.184Z,3.60
2023-03-06T04:51:17.164Z,3.73
2023-03-06T04:53:45.206Z,3.30
2023-03-06T04:56:13.296Z,3.20
2023-03-06T04:58:44.017Z,3.73
2023-03-06T05:01:12.894Z,3.03
2023-03-06T05:03:40.954Z,3.53
2023-03-06T05:06:09.285Z,3.77
2023-03-06T05:08:37.461Z,4.43
2023-03-06T05:11:05.663Z,3.60
2023-03-06T05:13:33.594Z,3.33
2023-03-06T05:16:07.135Z,3.17
2023-03-06T05:18:37.493Z,3.80
2023-03-06T05:21:06.428Z,3.67
2023-03-06T05:23:36.726Z,3.10
2023-03-06T05:26:08.441Z,4.10
2023-03-06T05:28:36.557Z,3.23
2023-03-06T05:31:06.429Z,3.03
2023-03-06T05:33:35.008Z,3.70
2023-03-06T05:36:03.698Z,3.07
2023-03-06T05:38:31.670Z,3.50
2023-03-06T05:40:59.581Z,3.57
2023-03-06T05:43:27.539Z,3.80
2023-03-06T05:46:03.035Z,3.40
2023-03-06T05:48:35.533Z,3.93
2023-03-06T05:51:03.960Z,3.70
2023-03-06T05:53:32.700Z,3.80
2023-03-06T05:56:02.351Z,3.30
2023-03-06T05:58:31.486Z,3.70
2023-03-06T06:00:59.934Z,3.23
2023-03-06T06:03:27.989Z,3.53
2023-03-06T06:05:57.284Z,3.37
2023-03-06T06:08:25.264Z,3.90
2023-03-06T06:10:53.585Z,3.57
2023-03-06T06:13:21.591Z,3.90
2023-03-06T06:15:49.576Z,4.10
2023-03-06T06:18:17.572Z,4.60
2023-03-06T06:20:45.867Z,4.73
2023-03-06T06:23:15.165Z,4.23
2023-03-06T06:25:43.101Z,4.67
2023-03-06T06:28:12.385Z,4.30
2023-03-06T06:30:40.392Z,4.57
2023-03-06T06:33:08.325Z,4.40
2023-03-06T06:35:37.823Z,4.73
2023-03-06T06:38:05.871Z,5.03
2023-03-06T06:40:35.155Z,4.67
2023-03-06T06:43:03.098Z,4.43
2023-03-06T06:45:31.077Z,5.07
2023-03-06T06:47:59.245Z,4.80
2023-03-06T06:50:27.302Z,4.50
2023-03-06T06:52:55.296Z,4.40
2023-03-06T06:55:23.348Z,5.40
2023-03-06T06:57:52.626Z,5.63
2023-03-06T07:00:21.466Z,4.97
2023-03-06T07:02:51.179Z,4.97
2023-03-06T07:05:20.981Z,6.13
2023-03-06T07:07:51.299Z,6.10
2023-03-06T07:10:20.990Z,5.83
2023-03-06T07:12:49.397Z,5.73
2023-03-06T07:15:19.362Z,6.80
2023-03-06T07:17:49.898Z,6.07
2023-03-06T07:20:19.079Z,5.27
2023-03-06T07:22:51.233Z,5.40
2023-03-06T07:25:20.317Z,7.83
2023-03-06T07:27:53.348Z,6.27
2023-03-06T07:30:24.640Z,5.70
2023-03-06T07:32:56.542Z,4.90
2023-03-06T07:35:25.533Z,5.50
2023-03-06T07:37:53.855Z,6.20
2023-03-06T07:40:22.446Z,5.87
2023-03-06T07:42:50.516Z,5.60
2023-03-06T07:45:18.634Z,5.40
2023-03-06T07:47:48.124Z,5.40
2023-03-06T07:50:16.090Z,6.00
2023-03-06T07:52:44.055Z,5.70
2023-03-06T07:55:12.648Z,5.70
2023-03-06T07:57:40.792Z,5.80
2023-03-06T08:00:12.843Z,5.03
2023-03-06T08:02:42.426Z,5.37
2023-03-06T08:05:15.101Z,5.23
2023-03-06T08:07:43.437Z,5.63
2023-03-06T08:10:15.466Z,6.17
2023-03-06T08:12:43.586Z,5.70
2023-03-06T08:15:13.050Z,5.27
2023-03-06T08:17:41.320Z,5.27
2023-03-06T08:20:12.429Z,4.87
2023-03-06T08:22:40.419Z,5.10
2023-03-06T08:25:09.473Z,5.10
2023-03-06T08:27:37.639Z,5.33
2023-03-06T08:30:06.496Z,4.90
2023-03-06T08:32:36.876Z,4.53
2023-03-06T08:35:05.499Z,5.10
2023-03-06T08:37:34.833Z,4.80
2023-03-06T08:40:04.585Z,4.73
2023-03-06T08:42:32.543Z,4.00
2023-03-06T08:45:00.476Z,4.40
2023-03-06T08:47:28.496Z,4.77
2023-03-06T08:49:56.771Z,4.87
2023-03-06T08:52:25.122Z,4.40
2023-03-06T08:54:54.428Z,3.70
2023-03-06T08:57:22.395Z,3.50
2023-03-06T08:59:50.369Z,3.90
2023-03-06T09:02:18.359Z,3.73
2023-03-06T09:04:46.329Z,4.23
2023-03-06T09:07:14.285Z,3.67
2023-03-06T09:09:42.634Z,4.00
2023-03-06T09:12:12.029Z,4.43
2023-03-06T09:14:47.669Z,4.50
2023-03-06T09:17:15.759Z,3.40
2023-03-06T09:19:43.753Z,3.50
2023-03-06T09:22:11.770Z,3.77
2023-03-06T09:24:39.705Z,3.37
2023-03-06T09:27:07.750Z,3.40
2023-03-06T09:29:37.013Z,3.87
2023-03-06T09:32:05.366Z,3.50
2023-03-06T09:34:33.332Z,3.50
2023-03-06T09:37:03.708Z,4.13
2023-03-06T09:39:31.632Z,3.53
2023-03-06T09:41:59.980Z,3.37
2023-03-06T09:44:30.240Z,3.37
2023-03-06T09:47:20.561Z,3.23
2023-03-06T09:50:10.424Z,4.23
2023-03-06T09:52:46.108Z,2.87
2023-03-06T09:55:18.574Z,3.33
2023-03-06T09:57:54.016Z,2.90
2023-03-06T10:00:28.197Z,3.07
2023-03-06T10:03:08.830Z,3.37
2023-03-06T10:05:41.948Z,2.90
2023-03-06T10:08:21.821Z,3.17
2023-03-06T10:10:59.422Z,3.40
2023-03-06T10:13:32.432Z,2.90
2023-03-06T10:16:08.469Z,3.20
2023-03-06T10:18:39.058Z,2.90
2023-03-06T10:21:23.427Z,2.60
2023-03-06T10:23:55.314Z,2.80
2023-03-06T10:26:26.207Z,2.60
2023-03-06T10:29:07.151Z,2.97
2023-03-06T10:31:36.257Z,3.33
2023-03-06T10:34:17.749Z,2.37
2023-03-06T10:36:45.643Z,2.33
2023-03-06T10:39:16.824Z,2.97
2023-03-06T10:41:46.330Z,2.23
2023-03-06T10:44:25.371Z,2.50
2023-03-06T10:46:54.844Z,2.57
2023-03-06T10:49:28.333Z,2.67
2023-03-06T10:51:59.362Z,2.10
2023-03-06T10:54:28.465Z,1.97
2023-03-06T10:56:56.751Z,1.83
2023-03-06T10:59:28.258Z,2.60
2023-03-06T11:01:58.116Z,2.00
2023-03-06T11:04:29.697Z,2.23
2023-03-06T11:07:16.151Z,2.47
2023-03-06T11:09:47.684Z,2.33
2023-03-06T11:12:26.617Z,1.93
2023-03-06T11:15:22.906Z,2.13
2023-03-06T11:17:55.116Z,1.97
2023-03-06T11:20:30.284Z,2.13
2023-03-06T11:23:07.628Z,2.37
2023-03-06T11:25:41.760Z,2.00
2023-03-06T11:28:18.469Z,2.23
2023-03-06T11:30:49.795Z,1.70
2023-03-06T11:33:26.587Z,1.87
2023-03-06T11:36:01.574Z,2.50
2023-03-06T11:38:39.976Z,2.00
2023-03-06T11:41:19.045Z,1.90
2023-03-06T11:43:53.999Z,1.93
2023-03-06T11:46:25.592Z,1.90
2023-03-06T11:48:57.153Z,2.13
2023-03-06T11:51:29.662Z,2.23
2023-03-06T11:54:00.924Z,2.00
2023-03-06T11:56:34.200Z,1.60
2023-03-06T11:59:23.440Z,1.80
2023-03-06T12:02:00.459Z,1.80
2023-03-06T12:05:00.942Z,1.83
2023-03-06T12:07:34.683Z,1.67
2023-03-06T12:10:14.797Z,1.80
2023-03-06T12:13:04.962Z,1.80
2023-03-06T12:15:48.181Z,1.70
2023-03-06T12:18:31.472Z,1.70
2023-03-06T12:21:06.552Z,1.87
2023-03-06T12:23:53.493Z,1.60
2023-03-06T12:26:55.562Z,1.47
2023-03-06T12:29:37.289Z,1.70
2023-03-06T12:32:16.784Z,1.73
2023-03-06T12:35:16.768Z,1.50
2023-03-06T12:37:56.839Z,1.57
2023-03-06T12:40:42.916Z,1.40
2023-03-06T12:43:48.971Z,1.63
2023-03-06T12:46:18.562Z,1.77
2023-03-06T12:48:50.074Z,1.47
2023-03-06T12:51:20.730Z,1.90
2023-03-06T12:53:50.724Z,1.80
2023-03-06T12:56:21.817Z,1.87
2023-03-06T12:58:52.450Z,1.60
2023-03-06T13:01:43.042Z,1.53
2023-03-06T13:04:32.201Z,1.70
2023-03-06T13:07:17.380Z,1.63
2023-03-06T13:10:02.848Z,1.43
2023-03-06T13:13:00.631Z,1.40
2023-03-06T13:15:41.154Z,1.57
2023-03-06T13:18:50.865Z,1.83
2023-03-06T13:21:58.309Z,1.60
2023-03-06T13:24:27.526Z,2.07
2023-03-06T13:27:04.595Z,1.13
2023-03-06T13:30:23.719Z,1.53
2023-03-06T13:32:53.928Z,1.47
2023-03-06T13:35:57.654Z,1.60
2023-03-06T13:38:37.807Z,1.40
2023-03-06T13:41:33.925Z,1.50
2023-03-06T13:44:03.544Z,3.07
2023-03-06T13:46:35.288Z,1.83
2023-03-06T13:49:18.616Z,1.53
2023-03-06T13:52:06.047Z,1.77
2023-03-06T13:54:46.268Z,1.70
2023-03-06T13:57:49.043Z,1.63
2023-03-06T14:00:45.561Z,1.63
2023-03-06T14:03:47.818Z,1.70
2023-03-06T14:06:50.647Z,1.50
2023-03-06T14:09:25.955Z,1.73
2023-03-06T14:11:58.647Z,1.50
2023-03-06T14:14:35.690Z,1.80
2023-03-06T14:17:05.934Z,2.00
2023-03-06T14:19:38.780Z,1.77
2023-03-06T14:22:17.466Z,1.77
2023-03-06T14:24:58.352Z,1.80
2023-03-06T14:27:43.904Z,2.33
2023-03-06T14:30:15.191Z,2.70
2023-03-06T14:32:43.925Z,1.80
2023-03-06T14:35:29.075Z,1.67
2023-03-06T14:38:01.513Z,1.60
2023-03-06T14:40:32.901Z,1.60
2023-03-06T14:43:21.225Z,1.90
2023-03-06T14:45:55.335Z,1.60
2023-03-06T14:48:24.617Z,1.37
2023-03-06T14:50:54.977Z,1.53
2023-03-06T14:53:28.968Z,1.53
2023-03-06T14:56:00.068Z,1.43
2023-03-06T14:58:32.434Z,1.57
2023-03-06T15:01:04.312Z,1.67
2023-03-06T15:03:46.746Z,1.90
2023-03-06T15:06:19.233Z,1.67
2023-03-06T15:08:50.969Z,1.70
2023-03-06T15:11:18.949Z,1.83
2023-03-06T15:14:02.111Z,1.70
2023-03-06T15:16:31.271Z,2.10
2023-03-06T15:19:00.848Z,1.60
2023-03-06T15:21:32.591Z,1.60
2023-03-06T15:24:02.094Z,2.00
2023-03-06T15:26:33.278Z,3.17
2023-03-06T15:29:09.274Z,1.63
2023-03-06T15:31:38.700Z,1.53
2023-03-06T15:34:23.237Z,1.70
2023-03-06T15:36:55.192Z,1.63
2023-03-06T15:39:38.831Z,1.70
2023-03-06T15:42:19.270Z,1.60
2023-03-06T15:44:52.811Z,1.80
2023-03-06T15:47:21.172Z,1.60
2023-03-06T15:49:52.085Z,2.33
2023-03-06T15:52:20.821Z,1.83
2023-03-06T15:54:50.381Z,1.83
2023-03-06T15:57:22.984Z,1.97
2023-03-06T15:59:52.093Z,1.87
2023-03-06T16:02:22.903Z,1.70
2023-03-06T16:04:52.351Z,1.80
2023-03-06T16:07:20.759Z,1.80
2023-03-06T16:09:50.172Z,1.50
2023-03-06T16:12:20.206Z,1.77
2023-03-06T16:14:49.392Z,1.57
2023-03-06T16:17:18.030Z,1.77
2023-03-06T16:19:46.044Z,2.00
2023-03-06T16:22:14.391Z,1.60
2023-03-06T16:24:43.270Z,1.90
2023-03-06T16:27:18.388Z,1.37
2023-03-06T16:29:46.359Z,1.47
2023-03-06T16:32:14.325Z,2.33
2023-03-06T16:34:42.332Z,1.70
2023-03-06T16:37:13.634Z,2.00
2023-03-06T16:39:41.764Z,1.60
2023-03-06T16:42:09.719Z,1.43
2023-03-06T16:44:45.478Z,1.90
2023-03-06T16:47:13.625Z,1.77
2023-03-06T16:49:41.629Z,2.00
2023-03-06T16:52:11.493Z,1.80
2023-03-06T16:54:39.437Z,1.80
2023-03-06T16:57:07.436Z,1.90
2023-03-06T16:59:35.443Z,2.27
2023-03-06T17:02:04.773Z,2.07
2023-03-06T17:04:32.696Z,2.27
2023-03-06T17:07:00.828Z,1.50
2023-03-06T17:09:28.776Z,1.90
2023-03-06T17:11:56.817Z,1.80
2023-03-06T17:14:24.884Z,1.83
2023-03-06T17:16:54.357Z,1.93
2023-03-06T17:19:23.618Z,2.00
2023-03-06T17:21:51.526Z,2.00
2023-03-06T17:24:19.483Z,2.13
2023-03-06T17:26:48.468Z,1.70
2023-03-06T17:29:16.925Z,2.20
2023-03-06T17:31:44.906Z,2.07
2023-03-06T17:34:12.840Z,1.70
2023-03-06T17:36:42.262Z,2.40
2023-03-06T17:39:10.200Z,1.67
2023-03-06T17:41:38.102Z,2.90
2023-03-06T17:44:06.476Z,2.00
2023-03-06T17:46:34.626Z,2.53
2023-03-06T17:49:02.622Z,2.90
2023-03-06T17:51:30.561Z,2.40
2023-03-06T17:53:59.912Z,2.27
2023-03-06T17:56:28.126Z,2.60
2023-03-06T17:58:56.273Z,2.43
2023-03-06T18:01:27.301Z,2.73
2023-03-06T18:03:55.686Z,2.80
2023-03-06T18:06:25.008Z,2.30
2023-03-06T18:08:53.137Z,2.73
2023-03-06T18:11:22.853Z,2.50
2023-03-06T18:13:51.195Z,2.87
2023-03-06T18:16:20.991Z,2.90
2023-03-06T18:18:51.537Z,2.77
2023-03-06T18:21:19.514Z,2.87
2023-03-06T18:23:47.601Z,2.63
2023-03-06T18:26:17.312Z,2.70
2023-03-06T18:28:49.440Z,2.70
2023-03-06T18:31:18.125Z,3.00
2023-03-06T18:33:48.198Z,2.90
2023-03-06T18:36:16.879Z,2.50
2023-03-06T18:38:45.618Z,2.70
2023-03-06T18:41:14.277Z,2.57
2023-03-06T18:43:42.425Z,3.23
2023-03-06T18:46:12.403Z,2.93
2023-03-06T18:48:40.398Z,2.70
2023-03-06T18:51:10.342Z,3.40
2023-03-06T18:53:39.928Z,3.07
2023-03-06T18:56:08.734Z,3.43
2023-03-06T18:58:36.745Z,2.53
2023-03-06T19:01:07.356Z,2.47
2023-03-06T19:03:36.900Z,2.47
2023-03-06T19:06:06.142Z,2.60
2023-03-06T19:08:34.998Z,2.60
2023-03-06T19:11:04.240Z,2.93
2023-03-06T19:13:32.534Z,2.80
2023-03-06T19:16:00.872Z,2.73
2023-03-06T19:18:29.894Z,2.60
2023-03-06T19:21:09.501Z,2.77
2023-03-06T19:23:38.013Z,2.63
2023-03-06T19:26:07.450Z,2.93
2023-03-06T19:28:36.062Z,2.63
2023-03-06T19:31:09.833Z,2.73
2023-03-06T19:33:38.388Z,2.47
2023-03-06T19:36:09.778Z,2.77
2023-03-06T19:38:38.060Z,2.53
2023-03-06T19:41:11.679Z,2.57
2023-03-06T19:43:40.229Z,3.10
2023-03-06T19:46:11.663Z,2.80
2023-03-06T19:48:39.663Z,2.67
2023-03-06T19:51:09.943Z,2.60
2023-03-06T19:53:38.747Z,2.60
2023-03-06T19:56:08.720Z,2.47
2023-03-06T19:58:36.946Z,2.33
2023-03-06T20:01:07.065Z,3.10
2023-03-06T20:03:35.026Z,2.00
2023-03-06T20:06:06.120Z,2.67
2023-03-06T20:08:35.609Z,2.60
2023-03-06T20:11:03.971Z,2.40
2023-03-06T20:13:31.910Z,2.73
2023-03-06T20:16:03.718Z,2.53
2023-03-06T20:18:31.672Z,2.20
2023-03-06T20:21:00.293Z,2.60
2023-03-06T20:23:28.957Z,2.60
2023-03-06T20:26:01.848Z,2.50
2023-03-06T20:28:29.852Z,2.60
2023-03-06T20:30:57.923Z,2.40
2023-03-06T20:33:26.580Z,2.67
2023-03-06T20:35:54.883Z,2.30
2023-03-06T20:38:22.785Z,2.50
2023-03-06T20:40:54.540Z,2.40
2023-03-06T20:43:23.818Z,1.90
2023-03-06T20:45:58.869Z,2.00
2023-03-06T20:48:26.968Z,2.50
2023-03-06T20:51:06.127Z,2.50
2023-03-06T20:53:35.012Z,2.43
2023-03-06T20:56:03.137Z,2.67
2023-03-06T20:58:32.587Z,2.47
2023-03-06T21:01:02.412Z,2.80
2023-03-06T21:03:30.507Z,2.90
2023-03-06T21:05:58.460Z,3.00
2023-03-06T21:08:26.382Z,2.50
2023-03-06T21:10:54.327Z,2.50
2023-03-06T21:13:22.235Z,2.87
2023-03-06T21:15:51.565Z,2.60
2023-03-06T21:18:19.612Z,2.67
2023-03-06T21:20:47.554Z,2.60
2023-03-06T21:23:15.527Z,2.20
2023-03-06T21:25:48.801Z,2.40
2023-03-06T21:28:17.197Z,2.57
2023-03-06T21:30:45.634Z,2.40
2023-03-06T21:33:16.075Z,2.70
2023-03-06T21:35:45.640Z,2.50
2023-03-06T21:38:14.505Z,2.50
2023-03-06T21:40:43.609Z,2.47
2023-03-06T21:43:11.633Z,2.23
2023-03-06T21:45:43.868Z,2.60
2023-03-06T21:48:11.817Z,2.37
2023-03-06T21:50:41.217Z,2.60
2023-03-06T21:53:09.652Z,2.30
2023-03-06T21:55:40.336Z,3.00
2023-03-06T21:58:08.578Z,2.53
2023-03-06T22:00:36.768Z,2.30
2023-03-06T22:03:05.256Z,2.50
2023-03-06T22:05:33.385Z,2.50
2023-03-06T22:08:02.671Z,2.40
2023-03-06T22:10:30.635Z,2.70
2023-03-06T22:12:58.529Z,2.67
2023-03-06T22:15:26.529Z,2.50
2023-03-06T22:17:54.427Z,2.97
2023-03-06T22:20:22.355Z,2.40
2023-03-06T22:22:50.333Z,2.63
2023-03-06T22:25:19.737Z,2.73
2023-03-06T22:27:47.630Z,2.53
2023-03-06T22:30:15.935Z,2.70
2023-03-06T22:32:43.925Z,2.60
2023-03-06T22:35:12.001Z,2.63
2023-03-06T22:37:39.909Z,2.47
2023-03-06T22:40:09.489Z,2.70
2023-03-06T22:42:38.731Z,2.67
2023-03-06T22:45:07.587Z,2.87
2023-03-06T22:47:37.011Z,2.60
2023-03-06T22:50:06.137Z,2.40
2023-03-06T22:52:34.326Z,2.53
2023-03-06T22:55:02.516Z,2.40
2023-03-06T22:57:30.876Z,2.80
2023-03-06T23:00:00.204Z,2.40
2023-03-06T23:02:33.739Z,2.63
2023-03-06T23:05:01.914Z,2.73
2023-03-06T23:07:29.884Z,2.83
2023-03-06T23:09:57.870Z,2.30
2023-03-06T23:12:25.883Z,2.70
2023-03-06T23:14:53.893Z,3.00
2023-03-06T23:17:23.164Z,2.90
2023-03-06T23:19:51.370Z,2.70
2023-03-06T23:22:19.577Z,2.60
2023-03-06T23:24:47.545Z,2.57
2023-03-06T23:27:16.828Z,2.70
2023-03-06T23:29:45.100Z,2.27
2023-03-06T23:32:13.036Z,2.90
2023-03-06T23:34:42.513Z,2.77
2023-03-06T23:37:10.517Z,2.40
2023-03-06T23:39:38.594Z,2.37
2023-03-06T23:42:06.952Z,2.57
2023-03-06T23:44:36.132Z,3.07
2023-03-06T23:47:04.041Z,2.60
2023-03-06T23:49:32.020Z,2.20
2023-03-06T23:52:01.384Z,2.60
2023-03-06T23:54:29.402Z,2.53
2023-03-06T23:56:57.348Z,2.63
2023-03-06T23:59:25.290Z,2.30
